sensor_id;sensor_type;location;lat;lon;timestamp;P1;durP1;ratioP1;P2;durP2;ratioP2
7783;SDS011;19359;51.402;6.778;2022-09-01T00:01:00;2.38;;;0.63;;
7783;SDS011;19359;51.402;6.778;2022-09-01T00:03:28;0.95;;;0.55;;
7783;SDS011;19359;51.402;6.778;2022-09-01T00:05:56;5.05;;;0.77;;
7783;SDS011;19359;51.402;6.778;2022-09-01T00:08:22;5.03;;;0.63;;
7783;SDS011;19359;51.402;6.778;2022-09-01T00:10:51;0.60;;;0.60;;
7783;SDS011;19359;51.402;6.778;2022-09-01T00:13:17;0.60;;;0.57;;
7783;SDS011;19359;51.402;6.778;2022-09-01T00:15:44;1.30;;;0.60;;
7783;SDS011;19359;51.402;6.778;2022-09-01T00:18:11;0.40;;;0.40;;
7783;SDS011;19359;51.402;6.778;2022-09-01T00:20:39;1.42;;;0.60;;
7783;SDS011;19359;51.402;6.778;2022-09-01T00:23:06;3.60;;;0.70;;
7783;SDS011;19359;51.402;6.778;2022-09-01T00:25:33;0.40;;;0.40;;
7783;SDS011;19359;51.402;6.778;2022-09-01T00:28:02;0.40;;;0.40;;
7783;SDS011;19359;51.402;6.778;2022-09-01T00:30:29;3.97;;;0.60;;
7783;SDS011;19359;51.402;6.778;2022-09-01T00:32:56;3.83;;;0.50;;
7783;SDS011;19359;51.402;6.778;2022-09-01T00:35:23;2.22;;;0.88;;
7783;SDS011;19359;51.402;6.778;2022-09-01T00:37:50;1.40;;;0.70;;
7783;SDS011;19359;51.402;6.778;2022-09-01T00:40:17;0.70;;;0.52;;
7783;SDS011;19359;51.402;6.778;2022-09-01T00:42:44;4.38;;;0.60;;
7783;SDS011;19359;51.402;6.778;2022-09-01T00:45:14;7.72;;;0.80;;
7783;SDS011;19359;51.402;6.778;2022-09-01T00:47:41;2.35;;;1.35;;
7783;SDS011;19359;51.402;6.778;2022-09-01T00:50:08;3.72;;;0.80;;
7783;SDS011;19359;51.402;6.778;2022-09-01T00:52:38;2.83;;;0.60;;
7783;SDS011;19359;51.402;6.778;2022-09-01T00:55:10;0.70;;;0.70;;
7783;SDS011;19359;51.402;6.778;2022-09-01T00:57:40;6.45;;;0.77;;
7783;SDS011;19359;51.402;6.778;2022-09-01T01:00:09;2.25;;;0.50;;
7783;SDS011;19359;51.402;6.778;2022-09-01T01:02:41;1.75;;;0.50;;
7783;SDS011;19359;51.402;6.778;2022-09-01T01:05:11;1.45;;;0.73;;
7783;SDS011;19359;51.402;6.778;2022-09-01T01:07:39;0.50;;;0.50;;
7783;SDS011;19359;51.402;6.778;2022-09-01T01:10:08;1.27;;;0.82;;
7783;SDS011;19359;51.402;6.778;2022-09-01T01:12:37;1.08;;;0.60;;
7783;SDS011;19359;51.402;6.778;2022-09-01T01:15:08;1.75;;;0.60;;
7783;SDS011;19359;51.402;6.778;2022-09-01T01:17:36;1.00;;;0.32;;
7783;SDS011;19359;51.402;6.778;2022-09-01T01:20:05;4.03;;;0.82;;
7783;SDS011;19359;51.402;6.778;2022-09-01T01:22:54;0.68;;;0.50;;
7783;SDS011;19359;51.402;6.778;2022-09-01T01:25:32;0.80;;;0.77;;
7783;SDS011;19359;51.402;6.778;2022-09-01T01:28:05;5.38;;;0.93;;
7783;SDS011;19359;51.402;6.778;2022-09-01T01:30:34;3.63;;;0.77;;
7783;SDS011;19359;51.402;6.778;2022-09-01T01:33:03;0.40;;;0.40;;
7783;SDS011;19359;51.402;6.778;2022-09-01T01:35:30;0.52;;;0.52;;
7783;SDS011;19359;51.402;6.778;2022-09-01T01:37:59;0.57;;;0.57;;
7783;SDS011;19359;51.402;6.778;2022-09-01T01:40:27;1.55;;;0.50;;
7783;SDS011;19359;51.402;6.778;2022-09-01T01:42:56;2.83;;;0.60;;
7783;SDS011;19359;51.402;6.778;2022-09-01T01:45:26;2.10;;;0.50;;
7783;SDS011;19359;51.402;6.778;2022-09-01T01:47:54;2.70;;;0.73;;
7783;SDS011;19359;51.402;6.778;2022-09-01T01:50:22;0.82;;;0.55;;
7783;SDS011;19359;51.402;6.778;2022-09-01T01:52:51;2.83;;;0.70;;
7783;SDS011;19359;51.402;6.778;2022-09-01T01:55:18;0.93;;;0.40;;
7783;SDS011;19359;51.402;6.778;2022-09-01T01:57:52;0.65;;;0.45;;
7783;SDS011;19359;51.402;6.778;2022-09-01T02:00:22;1.35;;;0.50;;
7783;SDS011;19359;51.402;6.778;2022-09-01T02:02:51;3.00;;;0.75;;
7783;SDS011;19359;51.402;6.778;2022-09-01T02:05:19;0.45;;;0.45;;
7783;SDS011;19359;51.402;6.778;2022-09-01T02:07:50;1.88;;;0.45;;
7783;SDS011;19359;51.402;6.778;2022-09-01T02:10:21;1.10;;;0.85;;
7783;SDS011;19359;51.402;6.778;2022-09-01T02:12:50;0.75;;;0.75;;
7783;SDS011;19359;51.402;6.778;2022-09-01T02:15:17;1.10;;;0.60;;
7783;SDS011;19359;51.402;6.778;2022-09-01T02:17:45;0.80;;;0.40;;
7783;SDS011;19359;51.402;6.778;2022-09-01T02:20:13;1.55;;;0.68;;
7783;SDS011;19359;51.402;6.778;2022-09-01T02:22:41;2.05;;;0.60;;
7783;SDS011;19359;51.402;6.778;2022-09-01T02:25:09;0.68;;;0.57;;
7783;SDS011;19359;51.402;6.778;2022-09-01T02:27:40;1.08;;;0.52;;
7783;SDS011;19359;51.402;6.778;2022-09-01T02:30:08;2.08;;;0.60;;
7783;SDS011;19359;51.402;6.778;2022-09-01T02:32:36;0.85;;;0.70;;
7783;SDS011;19359;51.402;6.778;2022-09-01T02:35:07;1.50;;;1.40;;
7783;SDS011;19359;51.402;6.778;2022-09-01T02:37:36;1.75;;;0.75;;
7783;SDS011;19359;51.402;6.778;2022-09-01T02:40:04;7.63;;;7.20;;
7783;SDS011;19359;51.402;6.778;2022-09-01T02:42:35;188.55;;;172.05;;
7783;SDS011;19359;51.402;6.778;2022-09-01T02:45:07;1.15;;;0.70;;
7783;SDS011;19359;51.402;6.778;2022-09-01T02:47:40;1.45;;;1.25;;
7783;SDS011;19359;51.402;6.778;2022-09-01T02:50:13;0.85;;;0.82;;
7783;SDS011;19359;51.402;6.778;2022-09-01T02:52:41;2.15;;;1.05;;
7783;SDS011;19359;51.402;6.778;2022-09-01T02:55:10;4.95;;;0.75;;
7783;SDS011;19359;51.402;6.778;2022-09-01T02:57:37;4.55;;;0.93;;
7783;SDS011;19359;51.402;6.778;2022-09-01T03:00:05;1.10;;;0.90;;
7783;SDS011;19359;51.402;6.778;2022-09-01T03:02:45;5.50;;;0.70;;
7783;SDS011;19359;51.402;6.778;2022-09-01T03:05:14;1.90;;;0.68;;
7783;SDS011;19359;51.402;6.778;2022-09-01T03:07:49;0.95;;;0.75;;
7783;SDS011;19359;51.402;6.778;2022-09-01T03:10:20;1.25;;;0.75;;
7783;SDS011;19359;51.402;6.778;2022-09-01T03:12:51;4.07;;;0.68;;
7783;SDS011;19359;51.402;6.778;2022-09-01T03:15:18;1.02;;;0.80;;
7783;SDS011;19359;51.402;6.778;2022-09-01T03:17:46;0.60;;;0.55;;
7783;SDS011;19359;51.402;6.778;2022-09-01T03:20:14;0.95;;;0.40;;
7783;SDS011;19359;51.402;6.778;2022-09-01T03:22:43;3.30;;;0.90;;
7783;SDS011;19359;51.402;6.778;2022-09-01T03:25:11;0.50;;;0.50;;
7783;SDS011;19359;51.402;6.778;2022-09-01T03:27:38;3.53;;;1.20;;
7783;SDS011;19359;51.402;6.778;2022-09-01T03:30:06;2.35;;;0.47;;
7783;SDS011;19359;51.402;6.778;2022-09-01T03:32:33;0.68;;;0.60;;
7783;SDS011;19359;51.402;6.778;2022-09-01T03:35:00;2.90;;;0.80;;
7783;SDS011;19359;51.402;6.778;2022-09-01T03:37:28;2.58;;;0.88;;
7783;SDS011;19359;51.402;6.778;2022-09-01T03:39:55;2.58;;;0.55;;
7783;SDS011;19359;51.402;6.778;2022-09-01T03:42:24;3.88;;;0.77;;
7783;SDS011;19359;51.402;6.778;2022-09-01T03:44:53;2.60;;;0.85;;
7783;SDS011;19359;51.402;6.778;2022-09-01T03:47:20;1.35;;;0.60;;
7783;SDS011;19359;51.402;6.778;2022-09-01T03:49:48;2.92;;;2.65;;
7783;SDS011;19359;51.402;6.778;2022-09-01T03:52:15;1.75;;;1.00;;
7783;SDS011;19359;51.402;6.778;2022-09-01T03:54:44;0.60;;;0.60;;
7783;SDS011;19359;51.402;6.778;2022-09-01T03:57:11;0.75;;;0.60;;
7783;SDS011;19359;51.402;6.778;2022-09-01T03:59:37;2.58;;;0.60;;
7783;SDS011;19359;51.402;6.778;2022-09-01T04:02:07;6.60;;;1.02;;
7783;SDS011;19359;51.402;6.778;2022-09-01T04:04:34;4.78;;;0.52;;
7783;SDS011;19359;51.402;6.778;2022-09-01T04:07:01;1.38;;;0.80;;
7783;SDS011;19359;51.402;6.778;2022-09-01T04:09:28;2.28;;;0.82;;
7783;SDS011;19359;51.402;6.778;2022-09-01T04:11:56;2.10;;;0.80;;
7783;SDS011;19359;51.402;6.778;2022-09-01T04:14:23;0.80;;;0.60;;
7783;SDS011;19359;51.402;6.778;2022-09-01T04:16:51;8.65;;;1.35;;
7783;SDS011;19359;51.402;6.778;2022-09-01T04:19:36;3.17;;;0.77;;
7783;SDS011;19359;51.402;6.778;2022-09-01T04:22:03;3.70;;;1.08;;
7783;SDS011;19359;51.402;6.778;2022-09-01T04:24:32;0.73;;;0.60;;
7783;SDS011;19359;51.402;6.778;2022-09-01T04:27:00;1.83;;;1.00;;
7783;SDS011;19359;51.402;6.778;2022-09-01T04:29:28;0.98;;;0.88;;
7783;SDS011;19359;51.402;6.778;2022-09-01T04:31:58;1.67;;;1.13;;
7783;SDS011;19359;51.402;6.778;2022-09-01T04:34:28;0.80;;;0.80;;
7783;SDS011;19359;51.402;6.778;2022-09-01T04:37:01;3.20;;;0.52;;
7783;SDS011;19359;51.402;6.778;2022-09-01T04:39:30;0.75;;;0.75;;
7783;SDS011;19359;51.402;6.778;2022-09-01T04:41:56;0.77;;;0.77;;
7783;SDS011;19359;51.402;6.778;2022-09-01T04:44:25;1.60;;;0.52;;
7783;SDS011;19359;51.402;6.778;2022-09-01T04:46:52;2.47;;;0.63;;
7783;SDS011;19359;51.402;6.778;2022-09-01T04:49:19;3.40;;;0.80;;
7783;SDS011;19359;51.402;6.778;2022-09-01T04:51:50;3.08;;;0.77;;
7783;SDS011;19359;51.402;6.778;2022-09-01T04:54:18;2.28;;;0.80;;
7783;SDS011;19359;51.402;6.778;2022-09-01T04:56:47;7.57;;;0.70;;
7783;SDS011;19359;51.402;6.778;2022-09-01T04:59:17;0.80;;;0.70;;
7783;SDS011;19359;51.402;6.778;2022-09-01T05:01:46;1.25;;;0.90;;
7783;SDS011;19359;51.402;6.778;2022-09-01T05:04:15;1.38;;;0.70;;
7783;SDS011;19359;51.402;6.778;2022-09-01T05:06:44;6.28;;;0.90;;
7783;SDS011;19359;51.402;6.778;2022-09-01T05:09:13;5.63;;;0.80;;
7783;SDS011;19359;51.402;6.778;2022-09-01T05:11:42;1.50;;;0.68;;
7783;SDS011;19359;51.402;6.778;2022-09-01T05:14:11;3.30;;;1.15;;
7783;SDS011;19359;51.402;6.778;2022-09-01T05:16:38;5.88;;;1.00;;
7783;SDS011;19359;51.402;6.778;2022-09-01T05:19:08;11.55;;;1.20;;
7783;SDS011;19359;51.402;6.778;2022-09-01T05:21:38;2.50;;;1.17;;
7783;SDS011;19359;51.402;6.778;2022-09-01T05:24:09;1.08;;;0.70;;
7783;SDS011;19359;51.402;6.778;2022-09-01T05:26:38;1.33;;;0.77;;
7783;SDS011;19359;51.402;6.778;2022-09-01T05:29:05;1.73;;;0.70;;
7783;SDS011;19359;51.402;6.778;2022-09-01T05:31:38;3.00;;;1.15;;
7783;SDS011;19359;51.402;6.778;2022-09-01T05:34:07;9.13;;;0.95;;
7783;SDS011;19359;51.402;6.778;2022-09-01T05:36:35;1.65;;;1.00;;
7783;SDS011;19359;51.402;6.778;2022-09-01T05:39:04;1.80;;;0.80;;
7783;SDS011;19359;51.402;6.778;2022-09-01T05:41:31;1.42;;;0.93;;
7783;SDS011;19359;51.402;6.778;2022-09-01T05:44:00;1.73;;;1.10;;
7783;SDS011;19359;51.402;6.778;2022-09-01T05:46:31;2.03;;;1.08;;
7783;SDS011;19359;51.402;6.778;2022-09-01T05:48:58;4.15;;;1.02;;
7783;SDS011;19359;51.402;6.778;2022-09-01T05:51:27;2.50;;;0.70;;
7783;SDS011;19359;51.402;6.778;2022-09-01T05:54:00;2.35;;;0.85;;
7783;SDS011;19359;51.402;6.778;2022-09-01T05:56:29;2.10;;;1.17;;
7783;SDS011;19359;51.402;6.778;2022-09-01T05:58:58;1.63;;;0.80;;
7783;SDS011;19359;51.402;6.778;2022-09-01T06:01:27;8.38;;;0.90;;
7783;SDS011;19359;51.402;6.778;2022-09-01T06:03:56;2.22;;;1.33;;
7783;SDS011;19359;51.402;6.778;2022-09-01T06:06:24;2.83;;;0.70;;
7783;SDS011;19359;51.402;6.778;2022-09-01T06:08:54;2.50;;;0.95;;
7783;SDS011;19359;51.402;6.778;2022-09-01T06:11:23;2.63;;;0.70;;
7783;SDS011;19359;51.402;6.778;2022-09-01T06:13:50;1.58;;;1.00;;
7783;SDS011;19359;51.402;6.778;2022-09-01T06:16:22;1.55;;;0.90;;
7783;SDS011;19359;51.402;6.778;2022-09-01T06:18:50;2.60;;;0.80;;
7783;SDS011;19359;51.402;6.778;2022-09-01T06:21:18;2.50;;;0.80;;
7783;SDS011;19359;51.402;6.778;2022-09-01T06:23:49;1.33;;;1.23;;
7783;SDS011;19359;51.402;6.778;2022-09-01T06:26:20;2.20;;;1.80;;
7783;SDS011;19359;51.402;6.778;2022-09-01T06:28:51;2.95;;;0.75;;
7783;SDS011;19359;51.402;6.778;2022-09-01T06:31:18;3.85;;;1.17;;
7783;SDS011;19359;51.402;6.778;2022-09-01T06:33:48;2.47;;;0.80;;
7783;SDS011;19359;51.402;6.778;2022-09-01T06:36:16;0.60;;;0.60;;
7783;SDS011;19359;51.402;6.778;2022-09-01T06:38:46;1.70;;;0.77;;
7783;SDS011;19359;51.402;6.778;2022-09-01T06:41:14;2.85;;;0.88;;
7783;SDS011;19359;51.402;6.778;2022-09-01T06:43:44;1.95;;;0.52;;
7783;SDS011;19359;51.402;6.778;2022-09-01T06:46:12;0.90;;;0.60;;
7783;SDS011;19359;51.402;6.778;2022-09-01T06:48:39;2.00;;;0.75;;
7783;SDS011;19359;51.402;6.778;2022-09-01T06:51:10;0.77;;;0.77;;
7783;SDS011;19359;51.402;6.778;2022-09-01T06:53:38;4.28;;;0.80;;
7783;SDS011;19359;51.402;6.778;2022-09-01T06:56:05;3.53;;;0.90;;
7783;SDS011;19359;51.402;6.778;2022-09-01T06:58:34;2.60;;;0.65;;
7783;SDS011;19359;51.402;6.778;2022-09-01T07:01:05;2.33;;;0.65;;
7783;SDS011;19359;51.402;6.778;2022-09-01T07:03:40;0.70;;;0.70;;
7783;SDS011;19359;51.402;6.778;2022-09-01T07:06:07;0.50;;;0.50;;
7783;SDS011;19359;51.402;6.778;2022-09-01T07:08:35;2.47;;;0.80;;
7783;SDS011;19359;51.402;6.778;2022-09-01T07:11:03;1.88;;;1.08;;
7783;SDS011;19359;51.402;6.778;2022-09-01T07:13:32;1.83;;;0.60;;
7783;SDS011;19359;51.402;6.778;2022-09-01T07:16:01;1.30;;;0.65;;
7783;SDS011;19359;51.402;6.778;2022-09-01T07:18:31;0.90;;;0.70;;
7783;SDS011;19359;51.402;6.778;2022-09-01T07:20:59;2.83;;;0.80;;
7783;SDS011;19359;51.402;6.778;2022-09-01T07:23:31;0.88;;;0.88;;
7783;SDS011;19359;51.402;6.778;2022-09-01T07:25:58;1.35;;;0.68;;
7783;SDS011;19359;51.402;6.778;2022-09-01T07:28:25;6.22;;;0.88;;
7783;SDS011;19359;51.402;6.778;2022-09-01T07:30:56;1.55;;;0.80;;
7783;SDS011;19359;51.402;6.778;2022-09-01T07:33:24;0.80;;;0.80;;
7783;SDS011;19359;51.402;6.778;2022-09-01T07:35:55;1.70;;;0.50;;
7783;SDS011;19359;51.402;6.778;2022-09-01T07:38:23;4.90;;;0.90;;
7783;SDS011;19359;51.402;6.778;2022-09-01T07:40:51;2.90;;;1.10;;
7783;SDS011;19359;51.402;6.778;2022-09-01T07:43:20;4.55;;;0.77;;
7783;SDS011;19359;51.402;6.778;2022-09-01T07:45:49;1.85;;;0.50;;
7783;SDS011;19359;51.402;6.778;2022-09-01T07:48:20;4.03;;;0.60;;
7783;SDS011;19359;51.402;6.778;2022-09-01T07:50:49;1.92;;;0.70;;
7783;SDS011;19359;51.402;6.778;2022-09-01T07:53:20;4.35;;;0.85;;
7783;SDS011;19359;51.402;6.778;2022-09-01T07:55:49;5.97;;;0.80;;
7783;SDS011;19359;51.402;6.778;2022-09-01T07:58:17;2.45;;;0.90;;
7783;SDS011;19359;51.402;6.778;2022-09-01T08:00:46;3.90;;;0.65;;
7783;SDS011;19359;51.402;6.778;2022-09-01T08:03:14;6.50;;;1.00;;
7783;SDS011;19359;51.402;6.778;2022-09-01T08:05:41;1.13;;;0.60;;
7783;SDS011;19359;51.402;6.778;2022-09-01T08:08:08;6.20;;;0.98;;
7783;SDS011;19359;51.402;6.778;2022-09-01T08:10:38;0.82;;;0.82;;
7783;SDS011;19359;51.402;6.778;2022-09-01T08:13:05;0.80;;;0.60;;
7783;SDS011;19359;51.402;6.778;2022-09-01T08:15:33;4.25;;;1.20;;
7783;SDS011;19359;51.402;6.778;2022-09-01T08:18:00;2.17;;;0.40;;
7783;SDS011;19359;51.402;6.778;2022-09-01T08:20:26;3.13;;;0.60;;
7783;SDS011;19359;51.402;6.778;2022-09-01T08:22:54;1.10;;;0.73;;
7783;SDS011;19359;51.402;6.778;2022-09-01T08:25:21;3.90;;;0.70;;
7783;SDS011;19359;51.402;6.778;2022-09-01T08:27:49;6.63;;;0.50;;
7783;SDS011;19359;51.402;6.778;2022-09-01T08:30:16;1.45;;;0.73;;
7783;SDS011;19359;51.402;6.778;2022-09-01T08:32:44;2.65;;;0.50;;
7783;SDS011;19359;51.402;6.778;2022-09-01T08:35:11;0.73;;;0.52;;
7783;SDS011;19359;51.402;6.778;2022-09-01T08:37:40;4.00;;;0.47;;
7783;SDS011;19359;51.402;6.778;2022-09-01T08:40:07;1.85;;;0.30;;
7783;SDS011;19359;51.402;6.778;2022-09-01T08:42:41;0.50;;;0.40;;
7783;SDS011;19359;51.402;6.778;2022-09-01T08:45:18;4.43;;;0.40;;
7783;SDS011;19359;51.402;6.778;2022-09-01T08:47:50;5.97;;;0.50;;
7783;SDS011;19359;51.402;6.778;2022-09-01T08:50:19;0.50;;;0.50;;
7783;SDS011;19359;51.402;6.778;2022-09-01T08:52:46;1.95;;;0.50;;
7783;SDS011;19359;51.402;6.778;2022-09-01T08:55:20;1.75;;;0.50;;
7783;SDS011;19359;51.402;6.778;2022-09-01T08:57:52;0.68;;;0.40;;
7783;SDS011;19359;51.402;6.778;2022-09-01T09:00:24;0.82;;;0.55;;
7783;SDS011;19359;51.402;6.778;2022-09-01T09:02:56;1.92;;;0.35;;
7783;SDS011;19359;51.402;6.778;2022-09-01T09:05:34;6.28;;;0.50;;
7783;SDS011;19359;51.402;6.778;2022-09-01T09:08:16;4.55;;;0.82;;
7783;SDS011;19359;51.402;6.778;2022-09-01T09:11:08;2.38;;;0.50;;
7783;SDS011;19359;51.402;6.778;2022-09-01T09:13:52;2.25;;;0.40;;
7783;SDS011;19359;51.402;6.778;2022-09-01T09:16:29;1.70;;;0.40;;
7783;SDS011;19359;51.402;6.778;2022-09-01T09:19:02;3.85;;;0.55;;
7783;SDS011;19359;51.402;6.778;2022-09-01T09:21:33;1.90;;;0.38;;
7783;SDS011;19359;51.402;6.778;2022-09-01T09:24:05;2.90;;;0.30;;
7783;SDS011;19359;51.402;6.778;2022-09-01T09:26:35;2.30;;;0.80;;
7783;SDS011;19359;51.402;6.778;2022-09-01T09:29:01;2.70;;;0.93;;
7783;SDS011;19359;51.402;6.778;2022-09-01T09:31:31;4.00;;;0.88;;
7783;SDS011;19359;51.402;6.778;2022-09-01T09:33:59;1.65;;;0.20;;
7783;SDS011;19359;51.402;6.778;2022-09-01T09:36:30;198.38;;;185.80;;
7783;SDS011;19359;51.402;6.778;2022-09-01T09:39:03;135.25;;;125.50;;
7783;SDS011;19359;51.402;6.778;2022-09-01T09:41:33;459.48;;;419.92;;
7783;SDS011;19359;51.402;6.778;2022-09-01T09:44:02;140.25;;;130.98;;
7783;SDS011;19359;51.402;6.778;2022-09-01T09:46:34;2.33;;;0.40;;
7783;SDS011;19359;51.402;6.778;2022-09-01T09:49:07;2.92;;;0.35;;
7783;SDS011;19359;51.402;6.778;2022-09-01T09:51:36;1.08;;;0.73;;
7783;SDS011;19359;51.402;6.778;2022-09-01T09:54:11;4.85;;;0.57;;
7783;SDS011;19359;51.402;6.778;2022-09-01T09:56:40;2.50;;;0.30;;
7783;SDS011;19359;51.402;6.778;2022-09-01T09:59:21;4.97;;;0.50;;
7783;SDS011;19359;51.402;6.778;2022-09-01T10:01:54;0.50;;;0.30;;
7783;SDS011;19359;51.402;6.778;2022-09-01T10:04:33;1.17;;;0.30;;
7783;SDS011;19359;51.402;6.778;2022-09-01T10:07:08;3.13;;;0.40;;
7783;SDS011;19359;51.402;6.778;2022-09-01T10:09:49;0.55;;;0.45;;
7783;SDS011;19359;51.402;6.778;2022-09-01T10:12:17;0.30;;;0.30;;
7783;SDS011;19359;51.402;6.778;2022-09-01T10:14:45;1.08;;;0.40;;
7783;SDS011;19359;51.402;6.778;2022-09-01T10:17:19;0.43;;;0.43;;
7783;SDS011;19359;51.402;6.778;2022-09-01T10:19:52;1.05;;;0.38;;
7783;SDS011;19359;51.402;6.778;2022-09-01T10:22:22;1.48;;;0.38;;
7783;SDS011;19359;51.402;6.778;2022-09-01T10:24:50;1.95;;;0.30;;
7783;SDS011;19359;51.402;6.778;2022-09-01T10:27:18;0.50;;;0.35;;
7783;SDS011;19359;51.402;6.778;2022-09-01T10:29:47;2.20;;;0.40;;
7783;SDS011;19359;51.402;6.778;2022-09-01T10:32:20;0.60;;;0.40;;
7783;SDS011;19359;51.402;6.778;2022-09-01T10:34:50;0.32;;;0.32;;
7783;SDS011;19359;51.402;6.778;2022-09-01T10:37:17;1.08;;;0.50;;
7783;SDS011;19359;51.402;6.778;2022-09-01T10:42:44;7.35;;;0.93;;
7783;SDS011;19359;51.402;6.778;2022-09-01T10:45:28;3.15;;;0.60;;
7783;SDS011;19359;51.402;6.778;2022-09-01T10:48:08;0.30;;;0.30;;
7783;SDS011;19359;51.402;6.778;2022-09-01T10:50:51;3.20;;;0.60;;
7783;SDS011;19359;51.402;6.778;2022-09-01T10:53:36;1.67;;;0.55;;
7783;SDS011;19359;51.402;6.778;2022-09-01T10:56:04;2.00;;;1.38;;
7783;SDS011;19359;51.402;6.778;2022-09-01T10:58:38;0.80;;;0.40;;
7783;SDS011;19359;51.402;6.778;2022-09-01T11:01:12;1.35;;;0.40;;
7783;SDS011;19359;51.402;6.778;2022-09-01T11:09:26;0.52;;;0.40;;
7783;SDS011;19359;51.402;6.778;2022-09-01T11:12:03;2.13;;;0.40;;
7783;SDS011;19359;51.402;6.778;2022-09-01T11:14:46;0.50;;;0.50;;
7783;SDS011;19359;51.402;6.778;2022-09-01T11:17:16;0.73;;;0.40;;
7783;SDS011;19359;51.402;6.778;2022-09-01T11:19:47;1.75;;;0.43;;
7783;SDS011;19359;51.402;6.778;2022-09-01T11:22:24;2.05;;;0.60;;
7783;SDS011;19359;51.402;6.778;2022-09-01T11:25:05;3.05;;;0.75;;
7783;SDS011;19359;51.402;6.778;2022-09-01T11:27:59;0.30;;;0.30;;
7783;SDS011;19359;51.402;6.778;2022-09-01T11:30:32;1.30;;;0.40;;
7783;SDS011;19359;51.402;6.778;2022-09-01T11:36:13;2.53;;;0.55;;
7783;SDS011;19359;51.402;6.778;2022-09-01T11:38:54;4.07;;;0.68;;
7783;SDS011;19359;51.402;6.778;2022-09-01T11:41:28;0.60;;;0.60;;
7783;SDS011;19359;51.402;6.778;2022-09-01T11:43:59;1.02;;;0.60;;
7783;SDS011;19359;51.402;6.778;2022-09-01T11:46:29;4.65;;;0.45;;
7783;SDS011;19359;51.402;6.778;2022-09-01T11:48:59;1.27;;;0.57;;
7783;SDS011;19359;51.402;6.778;2022-09-01T11:51:40;1.13;;;0.70;;
7783;SDS011;19359;51.402;6.778;2022-09-01T11:54:11;0.70;;;0.60;;
7783;SDS011;19359;51.402;6.778;2022-09-01T11:56:38;1.17;;;0.40;;
7783;SDS011;19359;51.402;6.778;2022-09-01T11:59:05;3.13;;;0.57;;
7783;SDS011;19359;51.402;6.778;2022-09-01T12:01:33;1.75;;;0.60;;
7783;SDS011;19359;51.402;6.778;2022-09-01T12:04:17;0.50;;;0.50;;
7783;SDS011;19359;51.402;6.778;2022-09-01T12:06:52;2.72;;;0.60;;
7783;SDS011;19359;51.402;6.778;2022-09-01T12:09:22;2.63;;;0.57;;
7783;SDS011;19359;51.402;6.778;2022-09-01T12:11:57;1.48;;;0.80;;
7783;SDS011;19359;51.402;6.778;2022-09-01T12:14:25;1.88;;;0.50;;
7783;SDS011;19359;51.402;6.778;2022-09-01T12:16:56;2.60;;;0.70;;
7783;SDS011;19359;51.402;6.778;2022-09-01T12:19:26;1.75;;;0.50;;
7783;SDS011;19359;51.402;6.778;2022-09-01T12:21:57;3.92;;;1.00;;
7783;SDS011;19359;51.402;6.778;2022-09-01T12:24:26;3.75;;;0.65;;
7783;SDS011;19359;51.402;6.778;2022-09-01T12:26:56;0.82;;;0.70;;
7783;SDS011;19359;51.402;6.778;2022-09-01T12:29:25;2.60;;;0.60;;
7783;SDS011;19359;51.402;6.778;2022-09-01T12:31:52;1.75;;;0.68;;
7783;SDS011;19359;51.402;6.778;2022-09-01T12:34:25;0.60;;;0.60;;
7783;SDS011;19359;51.402;6.778;2022-09-01T12:37:02;1.25;;;0.63;;
7783;SDS011;19359;51.402;6.778;2022-09-01T12:39:35;1.20;;;0.60;;
7783;SDS011;19359;51.402;6.778;2022-09-01T12:42:04;0.45;;;0.45;;
7783;SDS011;19359;51.402;6.778;2022-09-01T12:49:51;2.47;;;0.45;;
7783;SDS011;19359;51.402;6.778;2022-09-01T12:52:21;1.27;;;0.52;;
7783;SDS011;19359;51.402;6.778;2022-09-01T12:54:50;0.68;;;0.45;;
7783;SDS011;19359;51.402;6.778;2022-09-01T12:57:25;1.05;;;0.60;;
7783;SDS011;19359;51.402;6.778;2022-09-01T13:02:49;4.35;;;0.85;;
7783;SDS011;19359;51.402;6.778;2022-09-01T13:05:30;1.05;;;0.35;;
7783;SDS011;19359;51.402;6.778;2022-09-01T13:08:00;1.85;;;0.50;;
7783;SDS011;19359;51.402;6.778;2022-09-01T13:10:30;1.42;;;0.40;;
7783;SDS011;19359;51.402;6.778;2022-09-01T13:13:02;1.35;;;0.60;;
7783;SDS011;19359;51.402;6.778;2022-09-01T13:15:29;3.53;;;0.50;;
7783;SDS011;19359;51.402;6.778;2022-09-01T13:17:56;1.02;;;0.47;;
7783;SDS011;19359;51.402;6.778;2022-09-01T13:20:23;0.38;;;0.38;;
7783;SDS011;19359;51.402;6.778;2022-09-01T13:22:50;0.40;;;0.40;;
7783;SDS011;19359;51.402;6.778;2022-09-01T13:25:20;2.88;;;0.50;;
7783;SDS011;19359;51.402;6.778;2022-09-01T13:27:48;1.77;;;0.40;;
7783;SDS011;19359;51.402;6.778;2022-09-01T13:30:19;2.88;;;0.50;;
7783;SDS011;19359;51.402;6.778;2022-09-01T13:32:47;0.55;;;0.55;;
7783;SDS011;19359;51.402;6.778;2022-09-01T13:35:16;0.60;;;0.60;;
7783;SDS011;19359;51.402;6.778;2022-09-01T13:37:44;359.10;;;333.95;;
7783;SDS011;19359;51.402;6.778;2022-09-01T13:40:12;498.85;;;461.38;;
7783;SDS011;19359;51.402;6.778;2022-09-01T13:42:42;848.33;;;782.00;;
7783;SDS011;19359;51.402;6.778;2022-09-01T13:45:09;920.33;;;846.42;;
7783;SDS011;19359;51.402;6.778;2022-09-01T13:47:37;227.95;;;213.38;;
7783;SDS011;19359;51.402;6.778;2022-09-01T13:50:05;291.55;;;269.88;;
7783;SDS011;19359;51.402;6.778;2022-09-01T13:52:34;6.57;;;3.65;;
7783;SDS011;19359;51.402;6.778;2022-09-01T13:55:01;2.13;;;1.92;;
7783;SDS011;19359;51.402;6.778;2022-09-01T13:57:28;2.75;;;0.57;;
7783;SDS011;19359;51.402;6.778;2022-09-01T13:59:56;4.10;;;1.70;;
7783;SDS011;19359;51.402;6.778;2022-09-01T14:02:23;0.65;;;0.45;;
7783;SDS011;19359;51.402;6.778;2022-09-01T14:04:51;0.57;;;0.50;;
7783;SDS011;19359;51.402;6.778;2022-09-01T14:07:17;3.70;;;0.40;;
7783;SDS011;19359;51.402;6.778;2022-09-01T14:09:44;0.68;;;0.60;;
7783;SDS011;19359;51.402;6.778;2022-09-01T14:12:11;0.85;;;0.80;;
7783;SDS011;19359;51.402;6.778;2022-09-01T14:14:38;3.92;;;3.67;;
7783;SDS011;19359;51.402;6.778;2022-09-01T14:17:06;0.88;;;0.88;;
7783;SDS011;19359;51.402;6.778;2022-09-01T14:19:36;2.95;;;0.52;;
7783;SDS011;19359;51.402;6.778;2022-09-01T14:22:03;0.50;;;0.50;;
7783;SDS011;19359;51.402;6.778;2022-09-01T14:24:30;1.55;;;0.65;;
7783;SDS011;19359;51.402;6.778;2022-09-01T14:26:57;1.45;;;1.20;;
7783;SDS011;19359;51.402;6.778;2022-09-01T14:29:24;5.75;;;0.70;;
7783;SDS011;19359;51.402;6.778;2022-09-01T14:31:51;7.07;;;1.20;;
7783;SDS011;19359;51.402;6.778;2022-09-01T14:34:22;30.50;;;16.63;;
7783;SDS011;19359;51.402;6.778;2022-09-01T14:36:49;4.43;;;3.45;;
7783;SDS011;19359;51.402;6.778;2022-09-01T14:39:18;0.95;;;0.63;;
7783;SDS011;19359;51.402;6.778;2022-09-01T14:41:45;7.25;;;4.47;;
7783;SDS011;19359;51.402;6.778;2022-09-01T14:44:12;13.70;;;1.70;;
7783;SDS011;19359;51.402;6.778;2022-09-01T14:46:38;5.82;;;4.30;;
7783;SDS011;19359;51.402;6.778;2022-09-01T14:49:05;11.48;;;5.03;;
7783;SDS011;19359;51.402;6.778;2022-09-01T14:51:34;1.55;;;0.52;;
7783;SDS011;19359;51.402;6.778;2022-09-01T14:54:02;3.05;;;2.05;;
7783;SDS011;19359;51.402;6.778;2022-09-01T14:56:29;30.80;;;19.25;;
7783;SDS011;19359;51.402;6.778;2022-09-01T14:58:56;30.98;;;19.13;;
7783;SDS011;19359;51.402;6.778;2022-09-01T15:01:25;2.88;;;2.17;;
7783;SDS011;19359;51.402;6.778;2022-09-01T15:03:52;7.93;;;0.60;;
7783;SDS011;19359;51.402;6.778;2022-09-01T15:06:21;1.52;;;0.52;;
7783;SDS011;19359;51.402;6.778;2022-09-01T15:08:49;15.35;;;10.23;;
7783;SDS011;19359;51.402;6.778;2022-09-01T15:11:17;2.97;;;2.42;;
7783;SDS011;19359;51.402;6.778;2022-09-01T15:13:45;2.47;;;1.73;;
7783;SDS011;19359;51.402;6.778;2022-09-01T15:16:16;9.85;;;6.90;;
7783;SDS011;19359;51.402;6.778;2022-09-01T15:18:45;2.60;;;1.67;;
7783;SDS011;19359;51.402;6.778;2022-09-01T15:21:22;3.47;;;0.85;;
7783;SDS011;19359;51.402;6.778;2022-09-01T15:23:52;5.57;;;2.42;;
7783;SDS011;19359;51.402;6.778;2022-09-01T15:26:19;0.60;;;0.60;;
7783;SDS011;19359;51.402;6.778;2022-09-01T15:28:47;0.60;;;0.40;;
7783;SDS011;19359;51.402;6.778;2022-09-01T15:31:15;5.35;;;4.30;;
7783;SDS011;19359;51.402;6.778;2022-09-01T15:33:44;1.17;;;0.50;;
7783;SDS011;19359;51.402;6.778;2022-09-01T15:36:13;2.95;;;0.90;;